sensor_id;sensor_type;location;lat;lon;timestamp;P1;durP1;ratioP1;P2;durP2;ratioP2
64957;SDS011;51486;50.232;19.208;2023-02-21T00:00:52;3.37;;;1.83;;
64957;SDS011;51486;50.232;19.208;2023-02-21T00:03:56;1.53;;;1.00;;
64957;SDS011;51486;50.232;19.208;2023-02-21T00:07:00;2.10;;;1.43;;
64957;SDS011;51486;50.232;19.208;2023-02-21T00:10:04;2.37;;;1.23;;
64957;SDS011;51486;50.232;19.208;2023-02-21T00:13:10;3.20;;;1.53;;
64957;SDS011;51486;50.232;19.208;2023-02-21T00:16:15;2.13;;;1.23;;
64957;SDS011;51486;50.232;19.208;2023-02-21T00:19:20;1.73;;;1.10;;
64957;SDS011;51486;50.232;19.208;2023-02-21T00:22:25;3.13;;;1.23;;
64957;SDS011;51486;50.232;19.208;2023-02-21T00:25:29;1.80;;;1.20;;
64957;SDS011;51486;50.232;19.208;2023-02-21T00:28:33;1.33;;;1.13;;
64957;SDS011;51486;50.232;19.208;2023-02-21T00:31:37;1.90;;;1.13;;
64957;SDS011;51486;50.232;19.208;2023-02-21T00:34:41;1.37;;;1.00;;
64957;SDS011;51486;50.232;19.208;2023-02-21T00:37:49;1.03;;;0.80;;
64957;SDS011;51486;50.232;19.208;2023-02-21T00:40:54;0.93;;;0.80;;
64957;SDS011;51486;50.232;19.208;2023-02-21T00:43:58;2.70;;;1.20;;
64957;SDS011;51486;50.232;19.208;2023-02-21T00:47:03;1.07;;;0.77;;
64957;SDS011;51486;50.232;19.208;2023-02-21T00:50:07;1.70;;;1.13;;
64957;SDS011;51486;50.232;19.208;2023-02-21T00:53:11;3.07;;;1.00;;
64957;SDS011;51486;50.232;19.208;2023-02-21T00:56:16;2.80;;;0.93;;
64957;SDS011;51486;50.232;19.208;2023-02-21T00:59:20;1.10;;;1.00;;
64957;SDS011;51486;50.232;19.208;2023-02-21T01:02:24;1.50;;;1.10;;
64957;SDS011;51486;50.232;19.208;2023-02-21T01:05:29;2.80;;;1.60;;
64957;SDS011;51486;50.232;19.208;2023-02-21T01:08:33;4.90;;;1.27;;
64957;SDS011;51486;50.232;19.208;2023-02-21T01:11:37;1.37;;;1.10;;
64957;SDS011;51486;50.232;19.208;2023-02-21T01:14:42;1.77;;;1.27;;
64957;SDS011;51486;50.232;19.208;2023-02-21T01:17:46;1.53;;;1.13;;
64957;SDS011;51486;50.232;19.208;2023-02-21T01:20:50;0.93;;;0.80;;
64957;SDS011;51486;50.232;19.208;2023-02-21T01:23:54;1.73;;;0.80;;
64957;SDS011;51486;50.232;19.208;2023-02-21T01:26:58;1.63;;;0.97;;
64957;SDS011;51486;50.232;19.208;2023-02-21T01:30:03;1.33;;;1.13;;
64957;SDS011;51486;50.232;19.208;2023-02-21T01:33:09;1.33;;;0.97;;
64957;SDS011;51486;50.232;19.208;2023-02-21T01:36:14;4.97;;;1.57;;
64957;SDS011;51486;50.232;19.208;2023-02-21T01:39:18;1.63;;;0.97;;
64957;SDS011;51486;50.232;19.208;2023-02-21T01:42:23;4.37;;;1.13;;
64957;SDS011;51486;50.232;19.208;2023-02-21T01:49:03;1.40;;;0.97;;
64957;SDS011;51486;50.232;19.208;2023-02-21T01:52:11;1.70;;;0.87;;
64957;SDS011;51486;50.232;19.208;2023-02-21T01:55:15;1.30;;;1.00;;
64957;SDS011;51486;50.232;19.208;2023-02-21T01:58:20;1.50;;;0.90;;
64957;SDS011;51486;50.232;19.208;2023-02-21T02:01:50;3.30;;;1.10;;
64957;SDS011;51486;50.232;19.208;2023-02-21T02:04:55;2.30;;;1.30;;
64957;SDS011;51486;50.232;19.208;2023-02-21T02:08:00;1.83;;;1.00;;
64957;SDS011;51486;50.232;19.208;2023-02-21T02:11:10;2.20;;;1.10;;
64957;SDS011;51486;50.232;19.208;2023-02-21T02:35:31;1.50;;;1.33;;
64957;SDS011;51486;50.232;19.208;2023-02-21T02:38:22;2.97;;;2.17;;
64957;SDS011;51486;50.232;19.208;2023-02-21T02:41:27;3.67;;;1.80;;
64957;SDS011;51486;50.232;19.208;2023-02-21T02:44:19;2.00;;;1.60;;
64957;SDS011;51486;50.232;19.208;2023-02-21T02:47:13;2.50;;;1.63;;
64957;SDS011;51486;50.232;19.208;2023-02-21T02:50:04;2.00;;;1.40;;
64957;SDS011;51486;50.232;19.208;2023-02-21T02:52:52;5.93;;;1.93;;
64957;SDS011;51486;50.232;19.208;2023-02-21T02:55:41;1.30;;;1.20;;
64957;SDS011;51486;50.232;19.208;2023-02-21T03:10:45;2.90;;;1.60;;
64957;SDS011;51486;50.232;19.208;2023-02-21T03:13:41;3.43;;;1.50;;
64957;SDS011;51486;50.232;19.208;2023-02-21T03:16:32;2.80;;;1.90;;
64957;SDS011;51486;50.232;19.208;2023-02-21T03:22:14;3.13;;;1.87;;
64957;SDS011;51486;50.232;19.208;2023-02-21T03:25:02;4.03;;;2.27;;
64957;SDS011;51486;50.232;19.208;2023-02-21T03:27:50;3.30;;;2.00;;
64957;SDS011;51486;50.232;19.208;2023-02-21T03:30:39;2.37;;;2.00;;
64957;SDS011;51486;50.232;19.208;2023-02-21T03:33:26;6.67;;;2.87;;
64957;SDS011;51486;50.232;19.208;2023-02-21T03:36:12;3.70;;;2.60;;
64957;SDS011;51486;50.232;19.208;2023-02-21T03:38:59;3.30;;;2.20;;
64957;SDS011;51486;50.232;19.208;2023-02-21T03:41:44;4.00;;;2.50;;
64957;SDS011;51486;50.232;19.208;2023-02-21T03:44:30;4.40;;;2.40;;
64957;SDS011;51486;50.232;19.208;2023-02-21T03:47:16;2.70;;;2.10;;
64957;SDS011;51486;50.232;19.208;2023-02-21T03:50:02;4.90;;;2.90;;
64957;SDS011;51486;50.232;19.208;2023-02-21T03:52:49;3.80;;;2.30;;
64957;SDS011;51486;50.232;19.208;2023-02-21T03:55:35;3.70;;;2.00;;
64957;SDS011;51486;50.232;19.208;2023-02-21T03:58:20;3.93;;;2.33;;
64957;SDS011;51486;50.232;19.208;2023-02-21T04:01:07;2.63;;;1.70;;
64957;SDS011;51486;50.232;19.208;2023-02-21T04:03:52;3.57;;;2.07;;
64957;SDS011;51486;50.232;19.208;2023-02-21T04:06:38;1.37;;;1.10;;
64957;SDS011;51486;50.232;19.208;2023-02-21T04:09:27;1.60;;;1.37;;
64957;SDS011;51486;50.232;19.208;2023-02-21T04:12:13;2.37;;;1.33;;
64957;SDS011;51486;50.232;19.208;2023-02-21T04:14:59;1.40;;;1.30;;
64957;SDS011;51486;50.232;19.208;2023-02-21T04:17:45;1.30;;;0.93;;
64957;SDS011;51486;50.232;19.208;2023-02-21T04:20:31;1.17;;;0.93;;
64957;SDS011;51486;50.232;19.208;2023-02-21T04:23:17;2.03;;;1.23;;
64957;SDS011;51486;50.232;19.208;2023-02-21T04:26:04;3.17;;;1.53;;
64957;SDS011;51486;50.232;19.208;2023-02-21T04:28:50;3.17;;;1.50;;
64957;SDS011;51486;50.232;19.208;2023-02-21T04:31:36;2.27;;;1.20;;
64957;SDS011;51486;50.232;19.208;2023-02-21T04:34:22;1.43;;;1.13;;
64957;SDS011;51486;50.232;19.208;2023-02-21T04:37:07;1.30;;;1.20;;
64957;SDS011;51486;50.232;19.208;2023-02-21T04:39:53;2.13;;;1.27;;
64957;SDS011;51486;50.232;19.208;2023-02-21T04:42:39;3.93;;;1.40;;
64957;SDS011;51486;50.232;19.208;2023-02-21T04:45:25;1.90;;;1.43;;
64957;SDS011;51486;50.232;19.208;2023-02-21T04:48:11;2.30;;;1.07;;
64957;SDS011;51486;50.232;19.208;2023-02-21T04:50:56;2.70;;;1.50;;
64957;SDS011;51486;50.232;19.208;2023-02-21T04:53:42;2.23;;;1.40;;
64957;SDS011;51486;50.232;19.208;2023-02-21T04:56:30;2.00;;;1.30;;
64957;SDS011;51486;50.232;19.208;2023-02-21T04:59:16;3.37;;;1.20;;
64957;SDS011;51486;50.232;19.208;2023-02-21T05:02:02;3.43;;;1.83;;
64957;SDS011;51486;50.232;19.208;2023-02-21T05:04:50;3.27;;;1.87;;
64957;SDS011;51486;50.232;19.208;2023-02-21T05:07:36;4.63;;;2.53;;
64957;SDS011;51486;50.232;19.208;2023-02-21T05:10:21;4.23;;;2.17;;
64957;SDS011;51486;50.232;19.208;2023-02-21T05:13:07;3.93;;;2.30;;
64957;SDS011;51486;50.232;19.208;2023-02-21T05:15:53;4.50;;;2.27;;
64957;SDS011;51486;50.232;19.208;2023-02-21T05:18:42;2.30;;;1.73;;
64957;SDS011;51486;50.232;19.208;2023-02-21T05:21:32;5.03;;;1.97;;
64957;SDS011;51486;50.232;19.208;2023-02-21T05:24:19;2.83;;;2.03;;
64957;SDS011;51486;50.232;19.208;2023-02-21T05:27:05;12.33;;;2.47;;
64957;SDS011;51486;50.232;19.208;2023-02-21T05:29:51;2.53;;;1.60;;
64957;SDS011;51486;50.232;19.208;2023-02-21T05:32:38;3.67;;;2.50;;
64957;SDS011;51486;50.232;19.208;2023-02-21T05:35:24;3.93;;;2.70;;
64957;SDS011;51486;50.232;19.208;2023-02-21T05:38:10;6.93;;;2.67;;
64957;SDS011;51486;50.232;19.208;2023-02-21T05:40:56;3.37;;;2.27;;
64957;SDS011;51486;50.232;19.208;2023-02-21T05:43:42;5.53;;;2.00;;
64957;SDS011;51486;50.232;19.208;2023-02-21T05:46:29;3.43;;;2.00;;
64957;SDS011;51486;50.232;19.208;2023-02-21T05:49:17;3.13;;;2.17;;
64957;SDS011;51486;50.232;19.208;2023-02-21T05:52:02;5.23;;;2.10;;
64957;SDS011;51486;50.232;19.208;2023-02-21T05:54:49;2.90;;;2.30;;
64957;SDS011;51486;50.232;19.208;2023-02-21T05:57:38;5.70;;;1.90;;
64957;SDS011;51486;50.232;19.208;2023-02-21T06:00:25;4.03;;;2.10;;
64957;SDS011;51486;50.232;19.208;2023-02-21T06:03:12;4.07;;;2.10;;
64957;SDS011;51486;50.232;19.208;2023-02-21T06:05:58;3.23;;;2.00;;
64957;SDS011;51486;50.232;19.208;2023-02-21T06:08:44;4.57;;;2.63;;
64957;SDS011;51486;50.232;19.208;2023-02-21T06:11:32;5.67;;;2.57;;
64957;SDS011;51486;50.232;19.208;2023-02-21T06:14:21;3.67;;;2.57;;
64957;SDS011;51486;50.232;19.208;2023-02-21T06:17:07;4.77;;;2.87;;
64957;SDS011;51486;50.232;19.208;2023-02-21T06:19:54;5.40;;;3.60;;
64957;SDS011;51486;50.232;19.208;2023-02-21T06:22:41;6.13;;;3.33;;
64957;SDS011;51486;50.232;19.208;2023-02-21T06:25:27;7.00;;;4.27;;
64957;SDS011;51486;50.232;19.208;2023-02-21T06:28:13;6.20;;;3.40;;
64957;SDS011;51486;50.232;19.208;2023-02-21T06:30:59;5.63;;;3.83;;
64957;SDS011;51486;50.232;19.208;2023-02-21T06:33:45;4.97;;;3.53;;
64957;SDS011;51486;50.232;19.208;2023-02-21T06:36:32;6.53;;;3.70;;
64957;SDS011;51486;50.232;19.208;2023-02-21T06:39:18;6.50;;;3.20;;
64957;SDS011;51486;50.232;19.208;2023-02-21T06:42:03;4.47;;;3.10;;
64957;SDS011;51486;50.232;19.208;2023-02-21T06:44:50;5.00;;;3.07;;
64957;SDS011;51486;50.232;19.208;2023-02-21T06:47:36;3.23;;;2.30;;
64957;SDS011;51486;50.232;19.208;2023-02-21T06:50:22;5.60;;;2.77;;
64957;SDS011;51486;50.232;19.208;2023-02-21T06:53:07;4.60;;;2.70;;
64957;SDS011;51486;50.232;19.208;2023-02-21T06:55:53;5.33;;;2.77;;
64957;SDS011;51486;50.232;19.208;2023-02-21T06:58:39;3.80;;;2.47;;
64957;SDS011;51486;50.232;19.208;2023-02-21T07:01:25;9.07;;;2.80;;
64957;SDS011;51486;50.232;19.208;2023-02-21T07:04:12;5.10;;;3.03;;
64957;SDS011;51486;50.232;19.208;2023-02-21T07:06:58;4.37;;;2.33;;
64957;SDS011;51486;50.232;19.208;2023-02-21T07:09:44;8.40;;;2.63;;
64957;SDS011;51486;50.232;19.208;2023-02-21T07:12:29;7.57;;;2.97;;
64957;SDS011;51486;50.232;19.208;2023-02-21T07:15:15;5.33;;;2.63;;
64957;SDS011;51486;50.232;19.208;2023-02-21T07:18:01;5.47;;;2.57;;
64957;SDS011;51486;50.232;19.208;2023-02-21T07:20:46;8.97;;;2.80;;
64957;SDS011;51486;50.232;19.208;2023-02-21T07:23:33;3.00;;;2.20;;
64957;SDS011;51486;50.232;19.208;2023-02-21T07:26:19;4.90;;;2.23;;
64957;SDS011;51486;50.232;19.208;2023-02-21T07:29:05;3.60;;;1.73;;
64957;SDS011;51486;50.232;19.208;2023-02-21T07:31:51;3.00;;;2.20;;
64957;SDS011;51486;50.232;19.208;2023-02-21T07:34:37;4.90;;;2.90;;
64957;SDS011;51486;50.232;19.208;2023-02-21T07:37:22;5.70;;;2.90;;
64957;SDS011;51486;50.232;19.208;2023-02-21T07:40:08;6.50;;;3.90;;
64957;SDS011;51486;50.232;19.208;2023-02-21T07:42:54;5.37;;;3.30;;
64957;SDS011;51486;50.232;19.208;2023-02-21T07:45:41;7.90;;;3.73;;
64957;SDS011;51486;50.232;19.208;2023-02-21T07:48:30;6.60;;;3.37;;
64957;SDS011;51486;50.232;19.208;2023-02-21T07:51:15;8.13;;;4.07;;
64957;SDS011;51486;50.232;19.208;2023-02-21T07:54:01;8.80;;;4.03;;
64957;SDS011;51486;50.232;19.208;2023-02-21T07:56:47;6.27;;;3.50;;
64957;SDS011;51486;50.232;19.208;2023-02-21T07:59:33;7.43;;;4.00;;
64957;SDS011;51486;50.232;19.208;2023-02-21T08:02:19;7.30;;;4.03;;
64957;SDS011;51486;50.232;19.208;2023-02-21T08:05:05;10.80;;;4.17;;
64957;SDS011;51486;50.232;19.208;2023-02-21T08:07:52;7.30;;;4.30;;
64957;SDS011;51486;50.232;19.208;2023-02-21T08:10:40;5.67;;;3.40;;
64957;SDS011;51486;50.232;19.208;2023-02-21T08:13:25;5.40;;;3.20;;
64957;SDS011;51486;50.232;19.208;2023-02-21T08:16:11;6.33;;;3.40;;
64957;SDS011;51486;50.232;19.208;2023-02-21T08:18:57;13.67;;;4.03;;
64957;SDS011;51486;50.232;19.208;2023-02-21T08:21:44;4.57;;;3.13;;
64957;SDS011;51486;50.232;19.208;2023-02-21T08:24:31;4.90;;;2.97;;
64957;SDS011;51486;50.232;19.208;2023-02-21T08:27:17;6.67;;;4.33;;
64957;SDS011;51486;50.232;19.208;2023-02-21T08:30:02;8.90;;;4.23;;
64957;SDS011;51486;50.232;19.208;2023-02-21T08:32:48;4.90;;;3.00;;
64957;SDS011;51486;50.232;19.208;2023-02-21T08:35:35;5.47;;;3.27;;
64957;SDS011;51486;50.232;19.208;2023-02-21T08:38:21;6.07;;;3.73;;
64957;SDS011;51486;50.232;19.208;2023-02-21T08:41:07;4.73;;;2.87;;
64957;SDS011;51486;50.232;19.208;2023-02-21T08:43:54;6.10;;;2.77;;
64957;SDS011;51486;50.232;19.208;2023-02-21T08:46:40;8.90;;;3.93;;
64957;SDS011;51486;50.232;19.208;2023-02-21T08:49:26;5.97;;;2.90;;
64957;SDS011;51486;50.232;19.208;2023-02-21T08:52:13;6.73;;;3.77;;
64957;SDS011;51486;50.232;19.208;2023-02-21T08:55:04;5.70;;;3.50;;
64957;SDS011;51486;50.232;19.208;2023-02-21T08:57:52;6.37;;;2.83;;
64957;SDS011;51486;50.232;19.208;2023-02-21T09:00:38;5.97;;;2.97;;
64957;SDS011;51486;50.232;19.208;2023-02-21T09:03:24;5.07;;;2.70;;
64957;SDS011;51486;50.232;19.208;2023-02-21T09:06:10;8.47;;;2.93;;
64957;SDS011;51486;50.232;19.208;2023-02-21T09:08:56;4.47;;;2.57;;
64957;SDS011;51486;50.232;19.208;2023-02-21T09:11:41;4.87;;;2.63;;
64957;SDS011;51486;50.232;19.208;2023-02-21T09:14:31;5.17;;;2.60;;
64957;SDS011;51486;50.232;19.208;2023-02-21T09:17:17;5.17;;;2.73;;
64957;SDS011;51486;50.232;19.208;2023-02-21T09:20:04;3.93;;;2.60;;
64957;SDS011;51486;50.232;19.208;2023-02-21T09:22:52;3.07;;;1.97;;
64957;SDS011;51486;50.232;19.208;2023-02-21T09:25:38;7.60;;;3.07;;
64957;SDS011;51486;50.232;19.208;2023-02-21T09:28:24;6.83;;;3.27;;
64957;SDS011;51486;50.232;19.208;2023-02-21T09:31:10;2.43;;;1.87;;
64957;SDS011;51486;50.232;19.208;2023-02-21T09:33:55;3.13;;;2.20;;
64957;SDS011;51486;50.232;19.208;2023-02-21T09:36:41;5.30;;;3.10;;
64957;SDS011;51486;50.232;19.208;2023-02-21T09:39:28;2.30;;;2.10;;
64957;SDS011;51486;50.232;19.208;2023-02-21T09:42:15;6.07;;;2.20;;
64957;SDS011;51486;50.232;19.208;2023-02-21T09:45:02;4.20;;;2.30;;
64957;SDS011;51486;50.232;19.208;2023-02-21T09:47:48;4.23;;;2.20;;
64957;SDS011;51486;50.232;19.208;2023-02-21T09:50:42;4.90;;;2.17;;
64957;SDS011;51486;50.232;19.208;2023-02-21T09:53:33;3.50;;;2.17;;
64957;SDS011;51486;50.232;19.208;2023-02-21T09:56:26;4.57;;;2.17;;
64957;SDS011;51486;50.232;19.208;2023-02-21T09:59:14;4.50;;;2.40;;
64957;SDS011;51486;50.232;19.208;2023-02-21T10:02:02;2.80;;;1.73;;
64957;SDS011;51486;50.232;19.208;2023-02-21T10:08:01;2.87;;;1.97;;
64957;SDS011;51486;50.232;19.208;2023-02-21T10:10:55;4.30;;;1.93;;
64957;SDS011;51486;50.232;19.208;2023-02-21T10:13:51;3.93;;;1.90;;
64957;SDS011;51486;50.232;19.208;2023-02-21T10:16:55;3.63;;;2.00;;
64957;SDS011;51486;50.232;19.208;2023-02-21T10:19:46;2.17;;;1.60;;
64957;SDS011;51486;50.232;19.208;2023-02-21T10:22:37;5.77;;;2.00;;
64957;SDS011;51486;50.232;19.208;2023-02-21T10:25:25;7.97;;;2.40;;
64957;SDS011;51486;50.232;19.208;2023-02-21T10:28:16;3.30;;;2.37;;
64957;SDS011;51486;50.232;19.208;2023-02-21T10:31:09;3.37;;;2.07;;
64957;SDS011;51486;50.232;19.208;2023-02-21T10:33:58;7.30;;;2.87;;
64957;SDS011;51486;50.232;19.208;2023-02-21T10:36:44;3.87;;;1.93;;
64957;SDS011;51486;50.232;19.208;2023-02-21T10:39:32;3.20;;;2.10;;
64957;SDS011;51486;50.232;19.208;2023-02-21T10:42:40;3.03;;;1.90;;
64957;SDS011;51486;50.232;19.208;2023-02-21T10:45:32;2.80;;;1.73;;
64957;SDS011;51486;50.232;19.208;2023-02-21T10:48:20;2.30;;;1.27;;
64957;SDS011;51486;50.232;19.208;2023-02-21T10:51:11;5.20;;;2.00;;
64957;SDS011;51486;50.232;19.208;2023-02-21T10:54:16;3.40;;;1.87;;
64957;SDS011;51486;50.232;19.208;2023-02-21T10:57:09;3.07;;;1.57;;
64957;SDS011;51486;50.232;19.208;2023-02-21T10:59:57;6.27;;;2.00;;
64957;SDS011;51486;50.232;19.208;2023-02-21T11:02:44;3.70;;;1.37;;
64957;SDS011;51486;50.232;19.208;2023-02-21T11:05:35;3.67;;;1.70;;
64957;SDS011;51486;50.232;19.208;2023-02-21T11:08:35;2.77;;;1.70;;
64957;SDS011;51486;50.232;19.208;2023-02-21T11:11:58;7.47;;;2.47;;
64957;SDS011;51486;50.232;19.208;2023-02-21T11:14:45;2.13;;;1.50;;
64957;SDS011;51486;50.232;19.208;2023-02-21T11:18:01;2.93;;;2.00;;
64957;SDS011;51486;50.232;19.208;2023-02-21T11:21:14;2.60;;;1.50;;
64957;SDS011;51486;50.232;19.208;2023-02-21T11:24:05;4.80;;;2.40;;
64957;SDS011;51486;50.232;19.208;2023-02-21T11:26:52;3.07;;;1.83;;
64957;SDS011;51486;50.232;19.208;2023-02-21T11:29:40;4.63;;;2.57;;
64957;SDS011;51486;50.232;19.208;2023-02-21T11:32:30;7.27;;;3.17;;
64957;SDS011;51486;50.232;19.208;2023-02-21T11:38:05;6.07;;;2.03;;
64957;SDS011;51486;50.232;19.208;2023-02-21T11:40:54;3.40;;;2.00;;
64957;SDS011;51486;50.232;19.208;2023-02-21T11:43:44;2.40;;;1.50;;
64957;SDS011;51486;50.232;19.208;2023-02-21T11:46:46;2.73;;;1.33;;
64957;SDS011;51486;50.232;19.208;2023-02-21T11:52:25;1.73;;;1.30;;
64957;SDS011;51486;50.232;19.208;2023-02-21T11:55:18;1.73;;;1.10;;
64957;SDS011;51486;50.232;19.208;2023-02-21T12:01:12;1.50;;;1.37;;
64957;SDS011;51486;50.232;19.208;2023-02-21T12:06:53;3.33;;;2.10;;
64957;SDS011;51486;50.232;19.208;2023-02-21T12:12:58;3.63;;;2.20;;
64957;SDS011;51486;50.232;19.208;2023-02-21T12:34:52;5.03;;;2.17;;
64957;SDS011;51486;50.232;19.208;2023-02-21T12:40:18;4.20;;;2.17;;
64957;SDS011;51486;50.232;19.208;2023-02-21T12:48:11;2.50;;;1.40;;
64957;SDS011;51486;50.232;19.208;2023-02-21T12:50:44;4.90;;;1.70;;
64957;SDS011;51486;50.232;19.208;2023-02-21T12:53:18;4.93;;;1.50;;
64957;SDS011;51486;50.232;19.208;2023-02-21T12:55:51;3.53;;;1.30;;
64957;SDS011;51486;50.232;19.208;2023-02-21T12:58:36;1.63;;;1.00;;
64957;SDS011;51486;50.232;19.208;2023-02-21T13:01:10;1.97;;;1.13;;
64957;SDS011;51486;50.232;19.208;2023-02-21T13:15:02;2.57;;;1.53;;
64957;SDS011;51486;50.232;19.208;2023-02-21T13:18:01;3.17;;;1.50;;
64957;SDS011;51486;50.232;19.208;2023-02-21T13:20:53;2.07;;;1.23;;
64957;SDS011;51486;50.232;19.208;2023-02-21T13:23:46;4.03;;;1.90;;
64957;SDS011;51486;50.232;19.208;2023-02-21T13:26:55;6.10;;;1.80;;
64957;SDS011;51486;50.232;19.208;2023-02-21T13:30:12;4.33;;;1.13;;
64957;SDS011;51486;50.232;19.208;2023-02-21T13:33:03;1.57;;;1.10;;
64957;SDS011;51486;50.232;19.208;2023-02-21T13:35:50;1.17;;;1.00;;
64957;SDS011;51486;50.232;19.208;2023-02-21T13:38:36;2.90;;;1.07;;
64957;SDS011;51486;50.232;19.208;2023-02-21T13:41:23;1.20;;;1.00;;
64957;SDS011;51486;50.232;19.208;2023-02-21T13:44:18;3.10;;;1.13;;
64957;SDS011;51486;50.232;19.208;2023-02-21T13:50:00;2.30;;;1.70;;
64957;SDS011;51486;50.232;19.208;2023-02-21T13:53:31;2.10;;;1.43;;
64957;SDS011;51486;50.232;19.208;2023-02-21T13:56:18;3.40;;;1.83;;
64957;SDS011;51486;50.232;19.208;2023-02-21T14:02:15;2.07;;;1.77;;
64957;SDS011;51486;50.232;19.208;2023-02-21T14:05:06;3.97;;;1.50;;
64957;SDS011;51486;50.232;19.208;2023-02-21T14:08:07;4.27;;;2.40;;
64957;SDS011;51486;50.232;19.208;2023-02-21T14:13:55;3.60;;;2.27;;
64957;SDS011;51486;50.232;19.208;2023-02-21T14:19:58;4.43;;;2.47;;
64957;SDS011;51486;50.232;19.208;2023-02-21T14:22:45;3.47;;;2.20;;
64957;SDS011;51486;50.232;19.208;2023-02-21T14:25:35;2.63;;;1.77;;
64957;SDS011;51486;50.232;19.208;2023-02-21T14:40:23;4.37;;;1.80;;
64957;SDS011;51486;50.232;19.208;2023-02-21T14:46:53;5.40;;;2.43;;
64957;SDS011;51486;50.232;19.208;2023-02-21T14:50:06;2.90;;;1.90;;
64957;SDS011;51486;50.232;19.208;2023-02-21T14:55:59;2.87;;;1.50;;
64957;SDS011;51486;50.232;19.208;2023-02-21T14:59:11;2.20;;;1.40;;
64957;SDS011;51486;50.232;19.208;2023-02-21T15:05:03;3.20;;;1.77;;
64957;SDS011;51486;50.232;19.208;2023-02-21T15:10:44;2.17;;;1.67;;
64957;SDS011;51486;50.232;19.208;2023-02-21T15:13:32;4.93;;;2.10;;
64957;SDS011;51486;50.232;19.208;2023-02-21T15:16:20;3.43;;;1.90;;
64957;SDS011;51486;50.232;19.208;2023-02-21T15:19:05;3.10;;;1.90;;
64957;SDS011;51486;50.232;19.208;2023-02-21T15:22:05;3.40;;;1.90;;
64957;SDS011;51486;50.232;19.208;2023-02-21T15:27:53;3.60;;;1.80;;
64957;SDS011;51486;50.232;19.208;2023-02-21T15:30:40;3.83;;;2.20;;
64957;SDS011;51486;50.232;19.208;2023-02-21T15:33:27;3.47;;;2.03;;
64957;SDS011;51486;50.232;19.208;2023-02-21T15:36:18;7.10;;;2.43;;
64957;SDS011;51486;50.232;19.208;2023-02-21T15:39:18;5.67;;;2.63;;
64957;SDS011;51486;50.232;19.208;2023-02-21T15:42:10;4.83;;;2.50;;
64957;SDS011;51486;50.232;19.208;2023-02-21T15:45:07;6.57;;;2.70;;
64957;SDS011;51486;50.232;19.208;2023-02-21T15:48:15;8.90;;;2.53;;
64957;SDS011;51486;50.232;19.208;2023-02-21T15:51:02;7.70;;;2.90;;
64957;SDS011;51486;50.232;19.208;2023-02-21T15:57:19;4.07;;;2.33;;
64957;SDS011;51486;50.232;19.208;2023-02-21T16:06:18;4.00;;;2.37;;
64957;SDS011;51486;50.232;19.208;2023-02-21T16:12:04;2.73;;;1.70;;
64957;SDS011;51486;50.232;19.208;2023-02-21T16:18:15;4.43;;;2.47;;
64957;SDS011;51486;50.232;19.208;2023-02-21T16:21:06;5.43;;;2.87;;
64957;SDS011;51486;50.232;19.208;2023-02-21T16:23:52;4.50;;;2.80;;
64957;SDS011;51486;50.232;19.208;2023-02-21T16:26:38;6.40;;;2.80;;
64957;SDS011;51486;50.232;19.208;2023-02-21T16:29:24;9.53;;;3.37;;
64957;SDS011;51486;50.232;19.208;2023-02-21T16:32:17;8.20;;;3.47;;
64957;SDS011;51486;50.232;19.208;2023-02-21T16:35:05;5.13;;;3.37;;
64957;SDS011;51486;50.232;19.208;2023-02-21T16:37:51;7.93;;;3.93;;
64957;SDS011;51486;50.232;19.208;2023-02-21T16:40:39;6.00;;;3.83;;
64957;SDS011;51486;50.232;19.208;2023-02-21T16:43:26;7.77;;;3.67;;
64957;SDS011;51486;50.232;19.208;2023-02-21T16:46:12;6.80;;;3.90;;
64957;SDS011;51486;50.232;19.208;2023-02-21T16:48:59;6.53;;;4.30;;
64957;SDS011;51486;50.232;19.208;2023-02-21T16:51:45;6.17;;;3.97;;
64957;SDS011;51486;50.232;19.208;2023-02-21T16:54:31;8.83;;;3.37;;
64957;SDS011;51486;50.232;19.208;2023-02-21T16:57:17;9.67;;;3.37;;
64957;SDS011;51486;50.232;19.208;2023-02-21T17:00:03;9.23;;;4.37;;
64957;SDS011;51486;50.232;19.208;2023-02-21T17:02:49;6.80;;;4.27;;
64957;SDS011;51486;50.232;19.208;2023-02-21T17:05:35;10.10;;;3.83;;
64957;SDS011;51486;50.232;19.208;2023-02-21T17:08:21;10.30;;;4.13;;
64957;SDS011;51486;50.232;19.208;2023-02-21T17:11:07;9.47;;;3.87;;
64957;SDS011;51486;50.232;19.208;2023-02-21T17:13:52;7.77;;;3.10;;
64957;SDS011;51486;50.232;19.208;2023-02-21T17:16:38;7.47;;;2.87;;
64957;SDS011;51486;50.232;19.208;2023-02-21T17:19:24;11.10;;;4.10;;
64957;SDS011;51486;50.232;19.208;2023-02-21T17:22:10;3.87;;;2.70;;
64957;SDS011;51486;50.232;19.208;2023-02-21T17:24:55;4.83;;;2.60;;
64957;SDS011;51486;50.232;19.208;2023-02-21T17:27:41;6.43;;;3.10;;
64957;SDS011;51486;50.232;19.208;2023-02-21T17:30:27;8.30;;;2.80;;
64957;SDS011;51486;50.232;19.208;2023-02-21T17:33:15;9.60;;;2.93;;
64957;SDS011;51486;50.232;19.208;2023-02-21T17:36:01;3.60;;;2.23;;
64957;SDS011;51486;50.232;19.208;2023-02-21T17:38:47;6.73;;;3.03;;
64957;SDS011;51486;50.232;19.208;2023-02-21T17:41:35;4.57;;;2.47;;
64957;SDS011;51486;50.232;19.208;2023-02-21T17:44:20;7.73;;;3.20;;
64957;SDS011;51486;50.232;19.208;2023-02-21T17:47:07;4.77;;;2.57;;
64957;SDS011;51486;50.232;19.208;2023-02-21T17:49:53;6.77;;;3.00;;
64957;SDS011;51486;50.232;19.208;2023-02-21T17:52:39;5.33;;;3.50;;
64957;SDS011;51486;50.232;19.208;2023-02-21T17:55:26;7.77;;;4.00;;
64957;SDS011;51486;50.232;19.208;2023-02-21T17:58:13;4.30;;;2.90;;
64957;SDS011;51486;50.232;19.208;2023-02-21T18:00:59;5.97;;;3.13;;
64957;SDS011;51486;50.232;19.208;2023-02-21T18:03:45;7.60;;;3.60;;
64957;SDS011;51486;50.232;19.208;2023-02-21T18:06:33;7.03;;;3.03;;
64957;SDS011;51486;50.232;19.208;2023-02-21T18:09:18;7.87;;;3.23;;
64957;SDS011;51486;50.232;19.208;2023-02-21T18:12:04;10.27;;;5.53;;
64957;SDS011;51486;50.232;19.208;2023-02-21T18:14:50;9.47;;;4.03;;
64957;SDS011;51486;50.232;19.208;2023-02-21T18:17:36;11.50;;;4.40;;
64957;SDS011;51486;50.232;19.208;2023-02-21T18:20:23;6.70;;;3.47;;
64957;SDS011;51486;50.232;19.208;2023-02-21T18:23:10;11.60;;;4.50;;
64957;SDS011;51486;50.232;19.208;2023-02-21T18:25:57;9.13;;;3.50;;
64957;SDS011;51486;50.232;19.208;2023-02-21T18:28:44;5.83;;;2.77;;
64957;SDS011;51486;50.232;19.208;2023-02-21T18:31:30;10.40;;;3.40;;
64957;SDS011;51486;50.232;19.208;2023-02-21T18:34:16;17.53;;;4.10;;
64957;SDS011;51486;50.232;19.208;2023-02-21T18:37:02;4.43;;;2.63;;
64957;SDS011;51486;50.232;19.208;2023-02-21T18:39:51;9.33;;;3.67;;
64957;SDS011;51486;50.232;19.208;2023-02-21T18:42:39;5.30;;;2.63;;
64957;SDS011;51486;50.232;19.208;2023-02-21T18:45:25;4.23;;;2.50;;
64957;SDS011;51486;50.232;19.208;2023-02-21T18:48:11;7.23;;;2.57;;
64957;SDS011;51486;50.232;19.208;2023-02-21T18:50:58;9.73;;;2.80;;
64957;SDS011;51486;50.232;19.208;2023-02-21T18:53:44;7.43;;;2.43;;
64957;SDS011;51486;50.232;19.208;2023-02-21T18:56:30;6.07;;;3.23;;
64957;SDS011;51486;50.232;19.208;2023-02-21T18:59:16;6.33;;;2.97;;
64957;SDS011;51486;50.232;19.208;2023-02-21T19:02:03;5.13;;;3.00;;
64957;SDS011;51486;50.232;19.208;2023-02-21T19:04:50;7.47;;;2.73;;
64957;SDS011;51486;50.232;19.208;2023-02-21T19:07:36;8.63;;;3.00;;
64957;SDS011;51486;50.232;19.208;2023-02-21T19:10:22;8.77;;;2.97;;
64957;SDS011;51486;50.232;19.208;2023-02-21T19:13:08;4.60;;;2.80;;
64957;SDS011;51486;50.232;19.208;2023-02-21T19:15:54;10.47;;;3.60;;
64957;SDS011;51486;50.232;19.208;2023-02-21T19:18:41;10.23;;;3.70;;
64957;SDS011;51486;50.232;19.208;2023-02-21T19:21:27;7.47;;;3.33;;